sensor_id;sensor_type;location;lat;lon;timestamp;pressure;altitude;pressure_sealevel;temperature
23208;BMP180;11773;52.570;13.052;2024-03-23T00:55:06;100540.00;;;15.80
23208;BMP180;11773;52.570;13.052;2024-03-23T00:57:36;100523.00;;;15.80
23208;BMP180;11773;52.570;13.052;2024-03-23T01:00:06;100531.00;;;15.80
23208;BMP180;11773;52.570;13.052;2024-03-23T01:02:37;100539.00;;;15.80
23208;BMP180;11773;52.570;13.052;2024-03-23T01:05:07;100522.00;;;15.70
23208;BMP180;11773;52.570;13.052;2024-03-23T01:07:36;100520.00;;;15.70
23208;BMP180;11773;52.570;13.052;2024-03-23T01:10:06;100528.00;;;15.70
23208;BMP180;11773;52.570;13.052;2024-03-23T01:12:36;100510.00;;;15.70
23208;BMP180;11773;52.570;13.052;2024-03-23T01:15:06;100510.00;;;15.70
23208;BMP180;11773;52.570;13.052;2024-03-23T01:17:35;100510.00;;;15.70
23208;BMP180;11773;52.570;13.052;2024-03-23T01:20:05;100513.00;;;15.70
23208;BMP180;11773;52.570;13.052;2024-03-23T01:22:35;100493.00;;;15.70
23208;BMP180;11773;52.570;13.052;2024-03-23T01:25:05;100489.00;;;15.70
23208;BMP180;11773;52.570;13.052;2024-03-23T01:27:34;100488.00;;;15.70
23208;BMP180;11773;52.570;13.052;2024-03-23T01:30:04;100477.00;;;15.70
23208;BMP180;11773;52.570;13.052;2024-03-23T01:32:34;100476.00;;;15.70
23208;BMP180;11773;52.570;13.052;2024-03-23T01:35:04;100467.00;;;15.70
23208;BMP180;11773;52.570;13.052;2024-03-23T01:37:33;100471.00;;;15.70
23208;BMP180;11773;52.570;13.052;2024-03-23T01:40:03;100465.00;;;15.70
23208;BMP180;11773;52.570;13.052;2024-03-23T01:42:33;100463.00;;;15.70
23208;BMP180;11773;52.570;13.052;2024-03-23T01:45:02;100469.00;;;15.70
23208;BMP180;11773;52.570;13.052;2024-03-23T01:47:34;100464.00;;;15.60
23208;BMP180;11773;52.570;13.052;2024-03-23T01:50:04;100462.00;;;15.70
23208;BMP180;11773;52.570;13.052;2024-03-23T01:52:34;100459.00;;;15.60
23208;BMP180;11773;52.570;13.052;2024-03-23T01:55:03;100442.00;;;15.60
23208;BMP180;11773;52.570;13.052;2024-03-23T01:57:33;100452.00;;;15.60
23208;BMP180;11773;52.570;13.052;2024-03-23T02:00:03;100460.00;;;15.60
23208;BMP180;11773;52.570;13.052;2024-03-23T02:02:33;100453.00;;;15.60
23208;BMP180;11773;52.570;13.052;2024-03-23T02:05:02;100475.00;;;15.60
23208;BMP180;11773;52.570;13.052;2024-03-23T02:07:32;100445.00;;;15.60
23208;BMP180;11773;52.570;13.052;2024-03-23T02:10:03;100442.00;;;15.60
23208;BMP180;11773;52.570;13.052;2024-03-23T02:12:33;100441.00;;;15.60
23208;BMP180;11773;52.570;13.052;2024-03-23T02:15:03;100432.00;;;15.60
23208;BMP180;11773;52.570;13.052;2024-03-23T02:17:34;100427.00;;;15.60
23208;BMP180;11773;52.570;13.052;2024-03-23T02:20:04;100415.00;;;15.60
23208;BMP180;11773;52.570;13.052;2024-03-23T02:22:39;100419.00;;;15.60
23208;BMP180;11773;52.570;13.052;2024-03-23T02:25:09;100416.00;;;15.60
23208;BMP180;11773;52.570;13.052;2024-03-23T02:27:38;100399.00;;;15.60
23208;BMP180;11773;52.570;13.052;2024-03-23T02:30:09;100395.00;;;15.60
23208;BMP180;11773;52.570;13.052;2024-03-23T02:32:39;100400.00;;;15.60
23208;BMP180;11773;52.570;13.052;2024-03-23T02:35:08;100403.00;;;15.60
23208;BMP180;11773;52.570;13.052;2024-03-23T02:37:38;100396.00;;;15.50
23208;BMP180;11773;52.570;13.052;2024-03-23T02:40:07;100397.00;;;15.50
23208;BMP180;11773;52.570;13.052;2024-03-23T02:42:37;100393.00;;;15.50
23208;BMP180;11773;52.570;13.052;2024-03-23T02:45:07;100390.00;;;15.50
23208;BMP180;11773;52.570;13.052;2024-03-23T02:47:36;100398.00;;;15.50
23208;BMP180;11773;52.570;13.052;2024-03-23T02:50:07;100405.00;;;15.50
23208;BMP180;11773;52.570;13.052;2024-03-23T02:52:37;100401.00;;;15.50
23208;BMP180;11773;52.570;13.052;2024-03-23T02:55:08;100404.00;;;15.50
23208;BMP180;11773;52.570;13.052;2024-03-23T02:57:37;100404.00;;;15.50
23208;BMP180;11773;52.570;13.052;2024-03-23T03:00:07;100387.00;;;15.50
23208;BMP180;11773;52.570;13.052;2024-03-23T03:02:39;100399.00;;;15.50
23208;BMP180;11773;52.570;13.052;2024-03-23T03:05:08;100388.00;;;15.50
23208;BMP180;11773;52.570;13.052;2024-03-23T03:07:39;100392.00;;;15.50
23208;BMP180;11773;52.570;13.052;2024-03-23T03:10:09;100374.00;;;15.50
23208;BMP180;11773;52.570;13.052;2024-03-23T03:12:40;100372.00;;;15.50
23208;BMP180;11773;52.570;13.052;2024-03-23T03:15:10;100365.00;;;15.40
23208;BMP180;11773;52.570;13.052;2024-03-23T03:17:39;100368.00;;;15.40
23208;BMP180;11773;52.570;13.052;2024-03-23T03:20:09;100368.00;;;15.50
23208;BMP180;11773;52.570;13.052;2024-03-23T03:22:40;100361.00;;;15.40
23208;BMP180;11773;52.570;13.052;2024-03-23T03:25:10;100364.00;;;15.40
23208;BMP180;11773;52.570;13.052;2024-03-23T03:27:40;100348.00;;;15.40
23208;BMP180;11773;52.570;13.052;2024-03-23T03:30:10;100344.00;;;15.40
23208;BMP180;11773;52.570;13.052;2024-03-23T03:32:40;100368.00;;;15.40
23208;BMP180;11773;52.570;13.052;2024-03-23T03:35:10;100340.00;;;15.40
23208;BMP180;11773;52.570;13.052;2024-03-23T03:37:39;100341.00;;;15.40
23208;BMP180;11773;52.570;13.052;2024-03-23T03:40:09;100352.00;;;15.40
23208;BMP180;11773;52.570;13.052;2024-03-23T03:42:39;100342.00;;;15.40
23208;BMP180;11773;52.570;13.052;2024-03-23T03:45:09;100336.00;;;15.30
23208;BMP180;11773;52.570;13.052;2024-03-23T03:47:38;100337.00;;;15.30
23208;BMP180;11773;52.570;13.052;2024-03-23T03:50:08;100344.00;;;15.30
23208;BMP180;11773;52.570;13.052;2024-03-23T03:52:38;100343.00;;;15.30
23208;BMP180;11773;52.570;13.052;2024-03-23T03:55:14;100335.00;;;15.30
23208;BMP180;11773;52.570;13.052;2024-03-23T03:57:43;100335.00;;;15.20
23208;BMP180;11773;52.570;13.052;2024-03-23T04:00:13;100341.00;;;15.20
23208;BMP180;11773;52.570;13.052;2024-03-23T04:02:44;100333.00;;;15.20
23208;BMP180;11773;52.570;13.052;2024-03-23T04:05:14;100336.00;;;15.20
23208;BMP180;11773;52.570;13.052;2024-03-23T04:07:43;100341.00;;;15.20
23208;BMP180;11773;52.570;13.052;2024-03-23T04:10:13;100340.00;;;15.20
23208;BMP180;11773;52.570;13.052;2024-03-23T04:12:44;100338.00;;;15.20
23208;BMP180;11773;52.570;13.052;2024-03-23T04:15:14;100319.00;;;15.20
23208;BMP180;11773;52.570;13.052;2024-03-23T04:17:44;100310.00;;;15.10
23208;BMP180;11773;52.570;13.052;2024-03-23T04:20:13;100309.00;;;15.10
23208;BMP180;11773;52.570;13.052;2024-03-23T04:22:45;100294.00;;;15.10
23208;BMP180;11773;52.570;13.052;2024-03-23T04:25:14;100302.00;;;15.10
23208;BMP180;11773;52.570;13.052;2024-03-23T04:27:45;100294.00;;;15.10
23208;BMP180;11773;52.570;13.052;2024-03-23T04:30:14;100297.00;;;15.00
23208;BMP180;11773;52.570;13.052;2024-03-23T04:32:44;100307.00;;;15.00
23208;BMP180;11773;52.570;13.052;2024-03-23T04:35:14;100299.00;;;15.00
23208;BMP180;11773;52.570;13.052;2024-03-23T04:37:44;100292.00;;;15.00
23208;BMP180;11773;52.570;13.052;2024-03-23T04:40:13;100296.00;;;15.00
23208;BMP180;11773;52.570;13.052;2024-03-23T04:42:44;100286.00;;;15.00
23208;BMP180;11773;52.570;13.052;2024-03-23T04:45:13;100289.00;;;14.90
23208;BMP180;11773;52.570;13.052;2024-03-23T04:47:43;100286.00;;;14.90
23208;BMP180;11773;52.570;13.052;2024-03-23T04:50:13;100288.00;;;14.90
23208;BMP180;11773;52.570;13.052;2024-03-23T04:52:42;100270.00;;;14.90
23208;BMP180;11773;52.570;13.052;2024-03-23T04:55:12;100271.00;;;14.90
23208;BMP180;11773;52.570;13.052;2024-03-23T04:57:42;100276.00;;;14.90
23208;BMP180;11773;52.570;13.052;2024-03-23T05:00:13;100267.00;;;14.90
23208;BMP180;11773;52.570;13.052;2024-03-23T05:02:46;100271.00;;;14.90
23208;BMP180;11773;52.570;13.052;2024-03-23T05:05:15;100278.00;;;14.80
23208;BMP180;11773;52.570;13.052;2024-03-23T05:07:45;100266.00;;;14.80
23208;BMP180;11773;52.570;13.052;2024-03-23T05:10:14;100256.00;;;14.80
23208;BMP180;11773;52.570;13.052;2024-03-23T05:12:44;100252.00;;;14.80
23208;BMP180;11773;52.570;13.052;2024-03-23T05:15:14;100274.00;;;14.80
23208;BMP180;11773;52.570;13.052;2024-03-23T05:17:43;100265.00;;;14.80
23208;BMP180;11773;52.570;13.052;2024-03-23T05:20:13;100250.00;;;14.70
23208;BMP180;11773;52.570;13.052;2024-03-23T05:22:43;100263.00;;;14.70
23208;BMP180;11773;52.570;13.052;2024-03-23T05:25:12;100263.00;;;14.70
23208;BMP180;11773;52.570;13.052;2024-03-23T05:27:42;100254.00;;;14.70
23208;BMP180;11773;52.570;13.052;2024-03-23T05:30:11;100260.00;;;14.70
23208;BMP180;11773;52.570;13.052;2024-03-23T05:32:41;100255.00;;;14.70
23208;BMP180;11773;52.570;13.052;2024-03-23T05:35:11;100242.00;;;14.70
23208;BMP180;11773;52.570;13.052;2024-03-23T05:37:40;100228.00;;;14.70
23208;BMP180;11773;52.570;13.052;2024-03-23T05:40:10;100236.00;;;14.70
23208;BMP180;11773;52.570;13.052;2024-03-23T05:42:42;100223.00;;;14.70
23208;BMP180;11773;52.570;13.052;2024-03-23T05:45:11;100223.00;;;14.60
23208;BMP180;11773;52.570;13.052;2024-03-23T05:47:41;100224.00;;;14.60
23208;BMP180;11773;52.570;13.052;2024-03-23T05:50:10;100228.00;;;14.60
23208;BMP180;11773;52.570;13.052;2024-03-23T05:52:41;100229.00;;;14.60
23208;BMP180;11773;52.570;13.052;2024-03-23T05:55:12;100230.00;;;14.60
23208;BMP180;11773;52.570;13.052;2024-03-23T05:57:41;100206.00;;;14.60
23208;BMP180;11773;52.570;13.052;2024-03-23T06:00:11;100190.00;;;14.60
23208;BMP180;11773;52.570;13.052;2024-03-23T06:02:44;100208.00;;;14.60
23208;BMP180;11773;52.570;13.052;2024-03-23T06:05:14;100207.00;;;14.50
23208;BMP180;11773;52.570;13.052;2024-03-23T06:07:43;100186.00;;;14.50
23208;BMP180;11773;52.570;13.052;2024-03-23T06:10:13;100185.00;;;14.50
23208;BMP180;11773;52.570;13.052;2024-03-23T06:12:43;100184.00;;;14.50
23208;BMP180;11773;52.570;13.052;2024-03-23T06:15:13;100196.00;;;14.50
23208;BMP180;11773;52.570;13.052;2024-03-23T06:17:43;100187.00;;;14.50
23208;BMP180;11773;52.570;13.052;2024-03-23T06:20:13;100197.00;;;14.50
23208;BMP180;11773;52.570;13.052;2024-03-23T06:22:42;100174.00;;;14.50
23208;BMP180;11773;52.570;13.052;2024-03-23T06:25:12;100173.00;;;14.50
23208;BMP180;11773;52.570;13.052;2024-03-23T06:27:42;100173.00;;;14.50
23208;BMP180;11773;52.570;13.052;2024-03-23T06:30:12;100176.00;;;14.50
23208;BMP180;11773;52.570;13.052;2024-03-23T06:32:42;100177.00;;;14.50
23208;BMP180;11773;52.570;13.052;2024-03-23T06:35:12;100181.00;;;14.50
23208;BMP180;11773;52.570;13.052;2024-03-23T06:37:41;100182.00;;;14.50
23208;BMP180;11773;52.570;13.052;2024-03-23T06:40:11;100174.00;;;14.50
23208;BMP180;11773;52.570;13.052;2024-03-23T06:42:40;100161.00;;;14.50
23208;BMP180;11773;52.570;13.052;2024-03-23T06:45:10;100161.00;;;14.50
23208;BMP180;11773;52.570;13.052;2024-03-23T06:47:39;100162.00;;;14.50
23208;BMP180;11773;52.570;13.052;2024-03-23T06:50:09;100161.00;;;14.50
23208;BMP180;11773;52.570;13.052;2024-03-23T06:52:39;100164.00;;;14.50
23208;BMP180;11773;52.570;13.052;2024-03-23T06:55:09;100145.00;;;14.40
23208;BMP180;11773;52.570;13.052;2024-03-23T06:57:38;100145.00;;;14.40
23208;BMP180;11773;52.570;13.052;2024-03-23T07:00:08;100155.00;;;14.50
23208;BMP180;11773;52.570;13.052;2024-03-23T07:02:38;100147.00;;;14.40
23208;BMP180;11773;52.570;13.052;2024-03-23T07:05:08;100154.00;;;14.40
23208;BMP180;11773;52.570;13.052;2024-03-23T07:07:39;100147.00;;;14.40
23208;BMP180;11773;52.570;13.052;2024-03-23T07:10:09;100161.00;;;14.40
23208;BMP180;11773;52.570;13.052;2024-03-23T07:12:39;100147.00;;;14.40
23208;BMP180;11773;52.570;13.052;2024-03-23T07:15:08;100145.00;;;14.40
23208;BMP180;11773;52.570;13.052;2024-03-23T07:17:38;100148.00;;;14.40
23208;BMP180;11773;52.570;13.052;2024-03-23T07:20:08;100154.00;;;14.30
23208;BMP180;11773;52.570;13.052;2024-03-23T07:22:40;100147.00;;;14.30
23208;BMP180;11773;52.570;13.052;2024-03-23T07:25:10;100146.00;;;14.20
23208;BMP180;11773;52.570;13.052;2024-03-23T07:27:39;100159.00;;;14.20
23208;BMP180;11773;52.570;13.052;2024-03-23T07:30:09;100147.00;;;14.20
23208;BMP180;11773;52.570;13.052;2024-03-23T07:32:39;100148.00;;;14.20
23208;BMP180;11773;52.570;13.052;2024-03-23T07:35:10;100162.00;;;14.10
23208;BMP180;11773;52.570;13.052;2024-03-23T07:37:42;100159.00;;;14.10
23208;BMP180;11773;52.570;13.052;2024-03-23T07:40:11;100162.00;;;14.10
23208;BMP180;11773;52.570;13.052;2024-03-23T07:42:44;100145.00;;;14.00
23208;BMP180;11773;52.570;13.052;2024-03-23T07:45:12;100138.00;;;14.00
23208;BMP180;11773;52.570;13.052;2024-03-23T07:47:42;100155.00;;;14.00
23208;BMP180;11773;52.570;13.052;2024-03-23T07:50:11;100153.00;;;14.00
23208;BMP180;11773;52.570;13.052;2024-03-23T07:52:41;100158.00;;;14.00
23208;BMP180;11773;52.570;13.052;2024-03-23T07:55:11;100166.00;;;14.00
23208;BMP180;11773;52.570;13.052;2024-03-23T07:57:40;100152.00;;;13.90
23208;BMP180;11773;52.570;13.052;2024-03-23T08:00:11;100151.00;;;13.90
23208;BMP180;11773;52.570;13.052;2024-03-23T08:02:41;100150.00;;;13.90
23208;BMP180;11773;52.570;13.052;2024-03-23T08:05:12;100145.00;;;13.90
23208;BMP180;11773;52.570;13.052;2024-03-23T08:07:42;100141.00;;;13.80
23208;BMP180;11773;52.570;13.052;2024-03-23T08:10:11;100147.00;;;13.80
23208;BMP180;11773;52.570;13.052;2024-03-23T08:12:41;100147.00;;;13.80
23208;BMP180;11773;52.570;13.052;2024-03-23T08:15:12;100143.00;;;13.80
23208;BMP180;11773;52.570;13.052;2024-03-23T08:17:42;100146.00;;;13.70
23208;BMP180;11773;52.570;13.052;2024-03-23T08:20:12;100156.00;;;13.70
23208;BMP180;11773;52.570;13.052;2024-03-23T08:22:41;100141.00;;;13.70
23208;BMP180;11773;52.570;13.052;2024-03-23T08:25:11;100136.00;;;13.60
23208;BMP180;11773;52.570;13.052;2024-03-23T08:27:41;100130.00;;;13.60
23208;BMP180;11773;52.570;13.052;2024-03-23T08:30:10;100146.00;;;13.60
23208;BMP180;11773;52.570;13.052;2024-03-23T08:32:40;100144.00;;;13.50
23208;BMP180;11773;52.570;13.052;2024-03-23T08:35:09;100150.00;;;13.50
23208;BMP180;11773;52.570;13.052;2024-03-23T08:37:39;100142.00;;;13.50
23208;BMP180;11773;52.570;13.052;2024-03-23T08:40:09;100131.00;;;13.50
23208;BMP180;11773;52.570;13.052;2024-03-23T08:42:38;100127.00;;;13.40
23208;BMP180;11773;52.570;13.052;2024-03-23T08:45:08;100123.00;;;13.40
23208;BMP180;11773;52.570;13.052;2024-03-23T08:47:38;100123.00;;;13.40
23208;BMP180;11773;52.570;13.052;2024-03-23T08:50:08;100128.00;;;13.40
23208;BMP180;11773;52.570;13.052;2024-03-23T08:52:37;100128.00;;;13.40
23208;BMP180;11773;52.570;13.052;2024-03-23T08:55:07;100119.00;;;13.40
23208;BMP180;11773;52.570;13.052;2024-03-23T08:57:38;100150.00;;;13.40
23208;BMP180;11773;52.570;13.052;2024-03-23T09:00:09;100128.00;;;13.40
23208;BMP180;11773;52.570;13.052;2024-03-23T09:02:39;100129.00;;;13.40
23208;BMP180;11773;52.570;13.052;2024-03-23T09:05:09;100124.00;;;13.40
23208;BMP180;11773;52.570;13.052;2024-03-23T09:07:40;100127.00;;;13.30
23208;BMP180;11773;52.570;13.052;2024-03-23T09:10:10;100127.00;;;13.40
23208;BMP180;11773;52.570;13.052;2024-03-23T09:12:39;100120.00;;;13.30
23208;BMP180;11773;52.570;13.052;2024-03-23T09:15:09;100130.00;;;13.30
23208;BMP180;11773;52.570;13.052;2024-03-23T09:17:38;100117.00;;;13.30
23208;BMP180;11773;52.570;13.052;2024-03-23T09:20:08;100131.00;;;13.40
23208;BMP180;11773;52.570;13.052;2024-03-23T09:22:38;100120.00;;;13.30
23208;BMP180;11773;52.570;13.052;2024-03-23T09:25:08;100123.00;;;13.30
23208;BMP180;11773;52.570;13.052;2024-03-23T09:27:38;100143.00;;;13.40
23208;BMP180;11773;52.570;13.052;2024-03-23T09:30:08;100145.00;;;13.30
23208;BMP180;11773;52.570;13.052;2024-03-23T09:32:38;100132.00;;;13.30
23208;BMP180;11773;52.570;13.052;2024-03-23T09:35:12;100139.00;;;13.30
23208;BMP180;11773;52.570;13.052;2024-03-23T09:37:45;100142.00;;;13.30
23208;BMP180;11773;52.570;13.052;2024-03-23T09:40:14;100137.00;;;13.40
23208;BMP180;11773;52.570;13.052;2024-03-23T09:42:50;100152.00;;;13.40
23208;BMP180;11773;52.570;13.052;2024-03-23T09:45:28;100142.00;;;13.40
23208;BMP180;11773;52.570;13.052;2024-03-23T09:47:58;100154.00;;;13.40
23208;BMP180;11773;52.570;13.052;2024-03-23T09:50:28;100147.00;;;13.40
23208;BMP180;11773;52.570;13.052;2024-03-23T09:52:58;100142.00;;;13.40
23208;BMP180;11773;52.570;13.052;2024-03-23T09:55:27;100162.00;;;13.40
23208;BMP180;11773;52.570;13.052;2024-03-23T09:57:57;100147.00;;;13.40
23208;BMP180;11773;52.570;13.052;2024-03-23T10:00:26;100155.00;;;13.40
23208;BMP180;11773;52.570;13.052;2024-03-23T10:02:57;100163.00;;;13.40
23208;BMP180;11773;52.570;13.052;2024-03-23T10:05:30;100160.00;;;13.40
23208;BMP180;11773;52.570;13.052;2024-03-23T10:08:18;100177.00;;;13.40
23208;BMP180;11773;52.570;13.052;2024-03-23T10:10:48;100168.00;;;13.40
23208;BMP180;11773;52.570;13.052;2024-03-23T10:13:30;100152.00;;;13.40
23208;BMP180;11773;52.570;13.052;2024-03-23T10:16:00;100156.00;;;13.40
23208;BMP180;11773;52.570;13.052;2024-03-23T10:18:30;100165.00;;;13.40
23208;BMP180;11773;52.570;13.052;2024-03-23T10:21:09;100159.00;;;13.40
23208;BMP180;11773;52.570;13.052;2024-03-23T10:23:42;100166.00;;;13.40
23208;BMP180;11773;52.570;13.052;2024-03-23T10:26:24;100169.00;;;13.40
23208;BMP180;11773;52.570;13.052;2024-03-23T10:29:02;100184.00;;;13.40
23208;BMP180;11773;52.570;13.052;2024-03-23T10:31:39;100173.00;;;13.40
23208;BMP180;11773;52.570;13.052;2024-03-23T10:34:12;100188.00;;;13.40
23208;BMP180;11773;52.570;13.052;2024-03-23T10:36:42;100175.00;;;13.40
23208;BMP180;11773;52.570;13.052;2024-03-23T10:39:13;100178.00;;;13.40
23208;BMP180;11773;52.570;13.052;2024-03-23T10:41:49;100183.00;;;13.40
23208;BMP180;11773;52.570;13.052;2024-03-23T10:44:20;100191.00;;;13.40
23208;BMP180;11773;52.570;13.052;2024-03-23T10:46:53;100185.00;;;13.40
23208;BMP180;11773;52.570;13.052;2024-03-23T10:49:26;100204.00;;;13.40
23208;BMP180;11773;52.570;13.052;2024-03-23T10:52:00;100194.00;;;13.40
23208;BMP180;11773;52.570;13.052;2024-03-23T10:54:34;100209.00;;;13.40
23208;BMP180;11773;52.570;13.052;2024-03-23T10:57:23;100195.00;;;13.50
23208;BMP180;11773;52.570;13.052;2024-03-23T10:59:54;100193.00;;;13.40
23208;BMP180;11773;52.570;13.052;2024-03-23T11:02:25;100198.00;;;13.50
23208;BMP180;11773;52.570;13.052;2024-03-23T11:04:56;100194.00;;;13.50
23208;BMP180;11773;52.570;13.052;2024-03-23T11:07:31;100191.00;;;13.50
23208;BMP180;11773;52.570;13.052;2024-03-23T11:10:01;100188.00;;;13.60
23208;BMP180;11773;52.570;13.052;2024-03-23T11:12:32;100184.00;;;13.60
23208;BMP180;11773;52.570;13.052;2024-03-23T11:15:05;100178.00;;;13.60
23208;BMP180;11773;52.570;13.052;2024-03-23T11:17:35;100173.00;;;13.60
23208;BMP180;11773;52.570;13.052;2024-03-23T11:20:06;100192.00;;;13.70
23208;BMP180;11773;52.570;13.052;2024-03-23T11:22:48;100178.00;;;13.70
23208;BMP180;11773;52.570;13.052;2024-03-23T11:25:27;100182.00;;;13.70
23208;BMP180;11773;52.570;13.052;2024-03-23T11:28:13;100192.00;;;13.70
23208;BMP180;11773;52.570;13.052;2024-03-23T11:30:44;100206.00;;;13.70
23208;BMP180;11773;52.570;13.052;2024-03-23T11:33:14;100203.00;;;13.80
23208;BMP180;11773;52.570;13.052;2024-03-23T11:35:43;100206.00;;;13.80
23208;BMP180;11773;52.570;13.052;2024-03-23T11:38:15;100218.00;;;13.90
23208;BMP180;11773;52.570;13.052;2024-03-23T11:40:50;100212.00;;;13.90
23208;BMP180;11773;52.570;13.052;2024-03-23T11:43:21;100210.00;;;13.90
23208;BMP180;11773;52.570;13.052;2024-03-23T11:45:52;100210.00;;;13.90
23208;BMP180;11773;52.570;13.052;2024-03-23T11:48:24;100211.00;;;13.90
23208;BMP180;11773;52.570;13.052;2024-03-23T11:50:57;100211.00;;;13.90
23208;BMP180;11773;52.570;13.052;2024-03-23T11:53:27;100221.00;;;13.90
23208;BMP180;11773;52.570;13.052;2024-03-23T11:55:59;100235.00;;;13.90
23208;BMP180;11773;52.570;13.052;2024-03-23T11:58:30;100216.00;;;13.90
23208;BMP180;11773;52.570;13.052;2024-03-23T12:01:04;100225.00;;;14.00
23208;BMP180;11773;52.570;13.052;2024-03-23T12:03:33;100223.00;;;14.00
23208;BMP180;11773;52.570;13.052;2024-03-23T12:06:05;100222.00;;;14.00
23208;BMP180;11773;52.570;13.052;2024-03-23T12:08:36;100206.00;;;14.00
23208;BMP180;11773;52.570;13.052;2024-03-23T12:11:15;100226.00;;;13.90
23208;BMP180;11773;52.570;13.052;2024-03-23T12:13:46;100212.00;;;13.90
23208;BMP180;11773;52.570;13.052;2024-03-23T12:16:20;100210.00;;;13.90
23208;BMP180;11773;52.570;13.052;2024-03-23T12:18:50;100201.00;;;13.90
23208;BMP180;11773;52.570;13.052;2024-03-23T12:21:20;100208.00;;;13.90
23208;BMP180;11773;52.570;13.052;2024-03-23T12:23:51;100208.00;;;13.90
23208;BMP180;11773;52.570;13.052;2024-03-23T12:26:20;100210.00;;;13.90
23208;BMP180;11773;52.570;13.052;2024-03-23T12:28:51;100195.00;;;13.90
23208;BMP180;11773;52.570;13.052;2024-03-23T12:31:21;100211.00;;;13.90
23208;BMP180;11773;52.570;13.052;2024-03-23T12:33:50;100209.00;;;13.90
23208;BMP180;11773;52.570;13.052;2024-03-23T12:36:20;100199.00;;;13.90
23208;BMP180;11773;52.570;13.052;2024-03-23T12:38:49;100210.00;;;13.90
23208;BMP180;11773;52.570;13.052;2024-03-23T12:41:19;100212.00;;;14.00
23208;BMP180;11773;52.570;13.052;2024-03-23T12:43:49;100191.00;;;14.00
23208;BMP180;11773;52.570;13.052;2024-03-23T12:46:18;100190.00;;;14.00
23208;BMP180;11773;52.570;13.052;2024-03-23T12:48:48;100183.00;;;14.00
23208;BMP180;11773;52.570;13.052;2024-03-23T12:51:17;100190.00;;;14.10
23208;BMP180;11773;52.570;13.052;2024-03-23T12:53:47;100186.00;;;14.10
23208;BMP180;11773;52.570;13.052;2024-03-23T12:56:16;100188.00;;;14.10
23208;BMP180;11773;52.570;13.052;2024-03-23T12:58:47;100196.00;;;14.20
23208;BMP180;11773;52.570;13.052;2024-03-23T13:01:19;100196.00;;;14.20
23208;BMP180;11773;52.570;13.052;2024-03-23T13:03:49;100175.00;;;14.20
23208;BMP180;11773;52.570;13.052;2024-03-23T13:06:19;100175.00;;;14.30
23208;BMP180;11773;52.570;13.052;2024-03-23T13:08:49;100177.00;;;14.30
23208;BMP180;11773;52.570;13.052;2024-03-23T13:11:19;100175.00;;;14.30
23208;BMP180;11773;52.570;13.052;2024-03-23T13:13:48;100184.00;;;14.30
23208;BMP180;11773;52.570;13.052;2024-03-23T13:16:18;100178.00;;;14.40
23208;BMP180;11773;52.570;13.052;2024-03-23T13:18:47;100170.00;;;14.40
23208;BMP180;11773;52.570;13.052;2024-03-23T13:21:17;100172.00;;;14.40
23208;BMP180;11773;52.570;13.052;2024-03-23T13:23:49;100180.00;;;14.50
23208;BMP180;11773;52.570;13.052;2024-03-23T13:26:19;100160.00;;;14.50
23208;BMP180;11773;52.570;13.052;2024-03-23T13:28:49;100153.00;;;14.60
23208;BMP180;11773;52.570;13.052;2024-03-23T13:31:19;100154.00;;;14.60
23208;BMP180;11773;52.570;13.052;2024-03-23T13:33:48;100156.00;;;14.70
23208;BMP180;11773;52.570;13.052;2024-03-23T13:36:18;100158.00;;;14.80
23208;BMP180;11773;52.570;13.052;2024-03-23T13:38:47;100164.00;;;14.80
23208;BMP180;11773;52.570;13.052;2024-03-23T13:41:17;100163.00;;;14.90
23208;BMP180;11773;52.570;13.052;2024-03-23T13:43:46;100162.00;;;15.00
23208;BMP180;11773;52.570;13.052;2024-03-23T13:46:16;100177.00;;;15.00
23208;BMP180;11773;52.570;13.052;2024-03-23T13:48:45;100161.00;;;15.10
23208;BMP180;11773;52.570;13.052;2024-03-23T13:51:15;100174.00;;;15.20
23208;BMP180;11773;52.570;13.052;2024-03-23T13:53:48;100182.00;;;15.20
23208;BMP180;11773;52.570;13.052;2024-03-23T13:56:17;100166.00;;;15.20
23208;BMP180;11773;52.570;13.052;2024-03-23T13:58:47;100172.00;;;15.20
23208;BMP180;11773;52.570;13.052;2024-03-23T14:01:17;100170.00;;;15.20
23208;BMP180;11773;52.570;13.052;2024-03-23T14:03:46;100169.00;;;15.30
23208;BMP180;11773;52.570;13.052;2024-03-23T14:06:16;100162.00;;;15.30
23208;BMP180;11773;52.570;13.052;2024-03-23T14:08:46;100175.00;;;15.30
23208;BMP180;11773;52.570;13.052;2024-03-23T14:11:15;100165.00;;;15.30
23208;BMP180;11773;52.570;13.052;2024-03-23T14:13:46;100169.00;;;15.30
23208;BMP180;11773;52.570;13.052;2024-03-23T14:16:16;100165.00;;;15.20
23208;BMP180;11773;52.570;13.052;2024-03-23T14:18:47;100191.00;;;15.20
23208;BMP180;11773;52.570;13.052;2024-03-23T14:21:17;100190.00;;;15.20
23208;BMP180;11773;52.570;13.052;2024-03-23T14:23:47;100210.00;;;15.20
23208;BMP180;11773;52.570;13.052;2024-03-23T14:26:16;100218.00;;;15.20
23208;BMP180;11773;52.570;13.052;2024-03-23T14:28:46;100222.00;;;15.10
23208;BMP180;11773;52.570;13.052;2024-03-23T14:33:51;100199.00;;;14.90
23208;BMP180;11773;52.570;13.052;2024-03-23T14:36:21;100207.00;;;14.80
23208;BMP180;11773;52.570;13.052;2024-03-23T14:38:51;100204.00;;;14.70
23208;BMP180;11773;52.570;13.052;2024-03-23T14:41:20;100223.00;;;14.60
23208;BMP180;11773;52.570;13.052;2024-03-23T14:43:50;100223.00;;;14.50
23208;BMP180;11773;52.570;13.052;2024-03-23T14:46:21;100234.00;;;14.50
23208;BMP180;11773;52.570;13.052;2024-03-23T14:48:52;100210.00;;;14.40
23208;BMP180;11773;52.570;13.052;2024-03-23T14:51:22;100200.00;;;14.30
23208;BMP180;11773;52.570;13.052;2024-03-23T14:53:52;100191.00;;;14.30
23208;BMP180;11773;52.570;13.052;2024-03-23T14:56:21;100208.00;;;14.30
23208;BMP180;11773;52.570;13.052;2024-03-23T14:58:54;100207.00;;;14.30